Terminal Aerodrome Forecast
Issued by NWS

Current Version | Previous Version | Text Only | Print | Product List | Glossary On
Versions: 1 2 3 4 5 6 7 8 9 10
885
FTUS44 KLIX 062320
TAFMCB
TAF
KMCB 062320Z 0700/0724 36004KT P6SM BKN100
     FM070130 01004KT P6SM SCT250
     FM072200 26004KT P6SM FEW250=

USA.gov is the U.S. government's official web portal to all federal, state and local government web resources and services.